sensor_id;sensor_type;location;lat;lon;timestamp;temperature;humidity
26947;DHT22;14501;52.282;10.560;2024-03-02T00:01:11;8.60;99.90
26947;DHT22;14501;52.282;10.560;2024-03-02T00:03:37;7.40;99.90
26947;DHT22;14501;52.282;10.560;2024-03-02T00:06:04;8.70;99.90
26947;DHT22;14501;52.282;10.560;2024-03-02T00:08:29;7.90;99.90
26947;DHT22;14501;52.282;10.560;2024-03-02T00:11:00;7.90;99.90
26947;DHT22;14501;52.282;10.560;2024-03-02T00:15:58;7.90;99.90
26947;DHT22;14501;52.282;10.560;2024-03-02T00:18:30;7.90;99.90
26947;DHT22;14501;52.282;10.560;2024-03-02T00:20:57;8.10;99.90
26947;DHT22;14501;52.282;10.560;2024-03-02T00:23:24;7.90;99.90
26947;DHT22;14501;52.282;10.560;2024-03-02T00:25:53;8.30;99.90
26947;DHT22;14501;52.282;10.560;2024-03-02T00:28:24;7.90;99.90
26947;DHT22;14501;52.282;10.560;2024-03-02T00:31:11;7.90;99.90
26947;DHT22;14501;52.282;10.560;2024-03-02T00:33:47;7.90;99.90
26947;DHT22;14501;52.282;10.560;2024-03-02T00:36:24;8.20;99.90
26947;DHT22;14501;52.282;10.560;2024-03-02T00:38:51;7.80;99.90
26947;DHT22;14501;52.282;10.560;2024-03-02T00:41:20;8.80;99.90
26947;DHT22;14501;52.282;10.560;2024-03-02T00:43:57;8.70;99.90
26947;DHT22;14501;52.282;10.560;2024-03-02T00:46:24;7.70;99.90
26947;DHT22;14501;52.282;10.560;2024-03-02T00:48:55;8.40;99.90
26947;DHT22;14501;52.282;10.560;2024-03-02T00:51:25;7.70;99.90
26947;DHT22;14501;52.282;10.560;2024-03-02T00:53:52;7.70;99.90
26947;DHT22;14501;52.282;10.560;2024-03-02T00:56:18;10.10;99.90
26947;DHT22;14501;52.282;10.560;2024-03-02T00:58:44;7.60;99.90
26947;DHT22;14501;52.282;10.560;2024-03-02T01:01:09;8.30;99.90
26947;DHT22;14501;52.282;10.560;2024-03-02T01:03:35;7.60;99.90
26947;DHT22;14501;52.282;10.560;2024-03-02T01:06:02;7.60;99.90
26947;DHT22;14501;52.282;10.560;2024-03-02T01:08:28;7.60;99.90
26947;DHT22;14501;52.282;10.560;2024-03-02T01:13:22;7.60;99.90
26947;DHT22;14501;52.282;10.560;2024-03-02T01:18:13;7.60;99.90
26947;DHT22;14501;52.282;10.560;2024-03-02T01:20:39;7.60;99.90
26947;DHT22;14501;52.282;10.560;2024-03-02T01:23:04;7.60;99.90
26947;DHT22;14501;52.282;10.560;2024-03-02T01:25:30;7.60;99.90
26947;DHT22;14501;52.282;10.560;2024-03-02T01:27:56;7.60;99.90
26947;DHT22;14501;52.282;10.560;2024-03-02T01:30:21;7.60;99.90
26947;DHT22;14501;52.282;10.560;2024-03-02T01:32:47;7.60;99.90
26947;DHT22;14501;52.282;10.560;2024-03-02T01:35:12;7.60;99.90
26947;DHT22;14501;52.282;10.560;2024-03-02T01:37:38;7.60;99.90
26947;DHT22;14501;52.282;10.560;2024-03-02T01:40:04;7.60;99.90
26947;DHT22;14501;52.282;10.560;2024-03-02T01:42:38;7.60;99.90
26947;DHT22;14501;52.282;10.560;2024-03-02T01:45:08;7.50;99.90
26947;DHT22;14501;52.282;10.560;2024-03-02T01:47:34;7.50;99.90
26947;DHT22;14501;52.282;10.560;2024-03-02T01:50:00;7.50;99.90
26947;DHT22;14501;52.282;10.560;2024-03-02T01:52:26;7.50;99.90
26947;DHT22;14501;52.282;10.560;2024-03-02T01:54:52;7.50;99.90
26947;DHT22;14501;52.282;10.560;2024-03-02T01:57:18;7.40;99.90
26947;DHT22;14501;52.282;10.560;2024-03-02T01:59:43;7.60;99.90
26947;DHT22;14501;52.282;10.560;2024-03-02T02:02:09;7.90;99.90
26947;DHT22;14501;52.282;10.560;2024-03-02T02:04:35;7.60;99.90
26947;DHT22;14501;52.282;10.560;2024-03-02T02:07:01;8.40;99.90
26947;DHT22;14501;52.282;10.560;2024-03-02T02:09:26;7.60;99.90
26947;DHT22;14501;52.282;10.560;2024-03-02T02:11:52;8.80;99.90
26947;DHT22;14501;52.282;10.560;2024-03-02T02:14:18;7.60;99.90
26947;DHT22;14501;52.282;10.560;2024-03-02T02:16:44;7.60;99.90
26947;DHT22;14501;52.282;10.560;2024-03-02T02:19:09;7.80;99.90
26947;DHT22;14501;52.282;10.560;2024-03-02T02:21:35;7.60;99.90
26947;DHT22;14501;52.282;10.560;2024-03-02T02:24:01;7.60;99.90
26947;DHT22;14501;52.282;10.560;2024-03-02T02:26:29;7.60;99.90
26947;DHT22;14501;52.282;10.560;2024-03-02T02:28:55;7.60;99.90
26947;DHT22;14501;52.282;10.560;2024-03-02T02:31:20;7.60;99.90
26947;DHT22;14501;52.282;10.560;2024-03-02T02:33:46;7.60;99.90
26947;DHT22;14501;52.282;10.560;2024-03-02T02:36:11;7.60;99.90
26947;DHT22;14501;52.282;10.560;2024-03-02T02:38:44;7.60;99.90
26947;DHT22;14501;52.282;10.560;2024-03-02T02:41:09;7.60;99.90
26947;DHT22;14501;52.282;10.560;2024-03-02T02:43:35;7.60;99.90
26947;DHT22;14501;52.282;10.560;2024-03-02T02:46:01;7.40;99.90
26947;DHT22;14501;52.282;10.560;2024-03-02T02:48:26;7.50;99.90
26947;DHT22;14501;52.282;10.560;2024-03-02T02:50:52;7.50;99.90
26947;DHT22;14501;52.282;10.560;2024-03-02T02:53:17;9.20;99.90
26947;DHT22;14501;52.282;10.560;2024-03-02T02:55:43;7.80;99.90
26947;DHT22;14501;52.282;10.560;2024-03-02T02:58:12;7.40;99.90
26947;DHT22;14501;52.282;10.560;2024-03-02T03:00:38;7.50;99.90
26947;DHT22;14501;52.282;10.560;2024-03-02T03:03:05;7.40;99.90
26947;DHT22;14501;52.282;10.560;2024-03-02T03:05:30;9.30;99.90
26947;DHT22;14501;52.282;10.560;2024-03-02T03:07:56;7.20;99.90
26947;DHT22;14501;52.282;10.560;2024-03-02T03:10:22;7.30;99.90
26947;DHT22;14501;52.282;10.560;2024-03-02T03:12:48;7.30;99.90
26947;DHT22;14501;52.282;10.560;2024-03-02T03:15:14;7.30;99.90
26947;DHT22;14501;52.282;10.560;2024-03-02T03:17:41;7.30;99.90
26947;DHT22;14501;52.282;10.560;2024-03-02T03:20:08;7.30;99.90
26947;DHT22;14501;52.282;10.560;2024-03-02T03:22:37;7.30;99.90
26947;DHT22;14501;52.282;10.560;2024-03-02T03:25:03;7.30;99.90
26947;DHT22;14501;52.282;10.560;2024-03-02T03:27:29;7.30;99.90
26947;DHT22;14501;52.282;10.560;2024-03-02T03:29:54;7.30;99.90
26947;DHT22;14501;52.282;10.560;2024-03-02T03:32:20;8.50;99.90
26947;DHT22;14501;52.282;10.560;2024-03-02T03:34:46;7.40;99.90
26947;DHT22;14501;52.282;10.560;2024-03-02T03:37:13;8.00;99.90
26947;DHT22;14501;52.282;10.560;2024-03-02T03:39:39;7.30;99.90
26947;DHT22;14501;52.282;10.560;2024-03-02T03:42:04;7.40;99.90
26947;DHT22;14501;52.282;10.560;2024-03-02T03:44:30;7.20;99.90
26947;DHT22;14501;52.282;10.560;2024-03-02T03:46:56;7.20;99.90
26947;DHT22;14501;52.282;10.560;2024-03-02T03:49:21;7.20;99.90
26947;DHT22;14501;52.282;10.560;2024-03-02T03:51:47;7.20;99.90
26947;DHT22;14501;52.282;10.560;2024-03-02T03:54:13;8.00;99.90
26947;DHT22;14501;52.282;10.560;2024-03-02T03:56:38;7.10;99.90
26947;DHT22;14501;52.282;10.560;2024-03-02T03:59:04;7.20;99.90
26947;DHT22;14501;52.282;10.560;2024-03-02T04:01:30;7.10;99.90
26947;DHT22;14501;52.282;10.560;2024-03-02T04:03:57;7.10;99.90
26947;DHT22;14501;52.282;10.560;2024-03-02T04:06:23;8.10;99.90
26947;DHT22;14501;52.282;10.560;2024-03-02T04:08:49;7.10;99.90
26947;DHT22;14501;52.282;10.560;2024-03-02T04:11:14;7.10;99.90
26947;DHT22;14501;52.282;10.560;2024-03-02T04:13:40;7.10;99.90
26947;DHT22;14501;52.282;10.560;2024-03-02T04:16:06;7.10;99.90
26947;DHT22;14501;52.282;10.560;2024-03-02T04:18:31;9.10;99.90
26947;DHT22;14501;52.282;10.560;2024-03-02T04:21:00;7.20;99.90
26947;DHT22;14501;52.282;10.560;2024-03-02T04:23:29;8.70;99.90
26947;DHT22;14501;52.282;10.560;2024-03-02T04:25:54;9.00;99.90
26947;DHT22;14501;52.282;10.560;2024-03-02T04:28:20;8.80;99.90
26947;DHT22;14501;52.282;10.560;2024-03-02T04:30:45;7.20;99.90
26947;DHT22;14501;52.282;10.560;2024-03-02T04:33:11;7.20;99.90
26947;DHT22;14501;52.282;10.560;2024-03-02T04:35:37;7.10;99.90
26947;DHT22;14501;52.282;10.560;2024-03-02T04:38:02;7.10;99.90
26947;DHT22;14501;52.282;10.560;2024-03-02T04:40:28;7.10;99.90
26947;DHT22;14501;52.282;10.560;2024-03-02T04:42:54;8.50;99.90
26947;DHT22;14501;52.282;10.560;2024-03-02T04:45:19;7.10;99.90
26947;DHT22;14501;52.282;10.560;2024-03-02T04:55:03;6.80;99.90
26947;DHT22;14501;52.282;10.560;2024-03-02T04:57:49;6.70;99.90
26947;DHT22;14501;52.282;10.560;2024-03-02T05:00:16;6.60;99.90
26947;DHT22;14501;52.282;10.560;2024-03-02T05:02:42;6.60;99.90
26947;DHT22;14501;52.282;10.560;2024-03-02T05:05:08;6.50;99.90
26947;DHT22;14501;52.282;10.560;2024-03-02T05:07:34;8.50;99.90
26947;DHT22;14501;52.282;10.560;2024-03-02T05:12:25;6.40;99.90
26947;DHT22;14501;52.282;10.560;2024-03-02T05:15:10;6.30;99.90
26947;DHT22;14501;52.282;10.560;2024-03-02T05:17:36;6.30;99.90
26947;DHT22;14501;52.282;10.560;2024-03-02T05:20:04;6.30;99.90
26947;DHT22;14501;52.282;10.560;2024-03-02T05:22:29;6.30;99.90
26947;DHT22;14501;52.282;10.560;2024-03-02T05:24:55;6.40;99.90
26947;DHT22;14501;52.282;10.560;2024-03-02T05:27:22;6.30;99.90
26947;DHT22;14501;52.282;10.560;2024-03-02T05:29:47;6.40;99.90
26947;DHT22;14501;52.282;10.560;2024-03-02T05:32:13;7.20;99.90
26947;DHT22;14501;52.282;10.560;2024-03-02T05:34:38;6.40;99.90
26947;DHT22;14501;52.282;10.560;2024-03-02T05:37:04;6.40;99.90
26947;DHT22;14501;52.282;10.560;2024-03-02T05:39:30;6.40;99.90
26947;DHT22;14501;52.282;10.560;2024-03-02T05:41:55;6.40;99.90
26947;DHT22;14501;52.282;10.560;2024-03-02T05:44:21;6.40;99.90
26947;DHT22;14501;52.282;10.560;2024-03-02T05:46:47;6.40;99.90
26947;DHT22;14501;52.282;10.560;2024-03-02T05:49:13;6.40;99.90
26947;DHT22;14501;52.282;10.560;2024-03-02T05:51:39;7.90;99.90
26947;DHT22;14501;52.282;10.560;2024-03-02T05:54:04;7.80;99.90
26947;DHT22;14501;52.282;10.560;2024-03-02T05:56:30;7.00;99.90
26947;DHT22;14501;52.282;10.560;2024-03-02T05:58:56;6.30;99.90
26947;DHT22;14501;52.282;10.560;2024-03-02T06:01:44;6.20;99.90
26947;DHT22;14501;52.282;10.560;2024-03-02T06:04:10;6.20;99.90
26947;DHT22;14501;52.282;10.560;2024-03-02T06:06:39;6.10;99.90
26947;DHT22;14501;52.282;10.560;2024-03-02T06:09:06;6.20;99.90
26947;DHT22;14501;52.282;10.560;2024-03-02T06:11:38;6.10;99.90
26947;DHT22;14501;52.282;10.560;2024-03-02T06:14:05;8.40;99.90
26947;DHT22;14501;52.282;10.560;2024-03-02T06:16:31;5.80;99.90
26947;DHT22;14501;52.282;10.560;2024-03-02T06:18:57;6.20;99.90
26947;DHT22;14501;52.282;10.560;2024-03-02T06:21:29;6.40;99.90
26947;DHT22;14501;52.282;10.560;2024-03-02T06:23:55;6.20;99.90
26947;DHT22;14501;52.282;10.560;2024-03-02T06:26:22;6.40;99.90
26947;DHT22;14501;52.282;10.560;2024-03-02T06:28:47;6.30;99.90
26947;DHT22;14501;52.282;10.560;2024-03-02T06:31:13;6.30;99.90
26947;DHT22;14501;52.282;10.560;2024-03-02T06:33:38;6.40;99.90
26947;DHT22;14501;52.282;10.560;2024-03-02T06:36:05;7.60;99.90
26947;DHT22;14501;52.282;10.560;2024-03-02T06:38:34;6.40;99.90
26947;DHT22;14501;52.282;10.560;2024-03-02T06:40:59;6.40;99.90
26947;DHT22;14501;52.282;10.560;2024-03-02T06:43:25;6.80;99.90
26947;DHT22;14501;52.282;10.560;2024-03-02T06:45:51;6.40;99.90
26947;DHT22;14501;52.282;10.560;2024-03-02T06:48:17;6.50;99.90
26947;DHT22;14501;52.282;10.560;2024-03-02T06:50:49;6.50;99.90
26947;DHT22;14501;52.282;10.560;2024-03-02T06:53:15;6.90;99.90
26947;DHT22;14501;52.282;10.560;2024-03-02T06:55:45;6.50;99.90
26947;DHT22;14501;52.282;10.560;2024-03-02T06:58:14;6.40;99.90
26947;DHT22;14501;52.282;10.560;2024-03-02T07:00:43;6.40;99.90
26947;DHT22;14501;52.282;10.560;2024-03-02T07:03:13;6.50;99.90
26947;DHT22;14501;52.282;10.560;2024-03-02T07:05:39;6.50;99.90
26947;DHT22;14501;52.282;10.560;2024-03-02T07:08:05;8.60;99.90
26947;DHT22;14501;52.282;10.560;2024-03-02T07:12:57;6.60;99.90
26947;DHT22;14501;52.282;10.560;2024-03-02T07:15:23;6.80;99.90
26947;DHT22;14501;52.282;10.560;2024-03-02T07:18:06;6.70;99.90
26947;DHT22;14501;52.282;10.560;2024-03-02T07:20:32;6.80;99.90
26947;DHT22;14501;52.282;10.560;2024-03-02T07:27:53;7.00;99.90
26947;DHT22;14501;52.282;10.560;2024-03-02T07:30:19;7.20;99.90
26947;DHT22;14501;52.282;10.560;2024-03-02T07:35:14;7.30;99.90
26947;DHT22;14501;52.282;10.560;2024-03-02T07:37:41;8.80;99.90
26947;DHT22;14501;52.282;10.560;2024-03-02T07:40:07;7.70;99.90
26947;DHT22;14501;52.282;10.560;2024-03-02T07:42:40;7.80;99.90
26947;DHT22;14501;52.282;10.560;2024-03-02T07:45:06;7.90;99.90
26947;DHT22;14501;52.282;10.560;2024-03-02T07:47:34;8.10;99.90
26947;DHT22;14501;52.282;10.560;2024-03-02T07:49:59;8.30;99.90
26947;DHT22;14501;52.282;10.560;2024-03-02T07:52:25;8.60;99.90
26947;DHT22;14501;52.282;10.560;2024-03-02T07:54:50;8.40;99.90
26947;DHT22;14501;52.282;10.560;2024-03-02T07:57:16;8.50;99.90
26947;DHT22;14501;52.282;10.560;2024-03-02T07:59:42;8.60;99.90
26947;DHT22;14501;52.282;10.560;2024-03-02T08:02:08;8.80;99.90
26947;DHT22;14501;52.282;10.560;2024-03-02T08:04:34;9.00;99.90
26947;DHT22;14501;52.282;10.560;2024-03-02T08:07:00;9.00;99.90
26947;DHT22;14501;52.282;10.560;2024-03-02T08:09:25;9.30;99.90
26947;DHT22;14501;52.282;10.560;2024-03-02T08:11:51;9.20;99.90
26947;DHT22;14501;52.282;10.560;2024-03-02T08:14:17;9.30;99.90
26947;DHT22;14501;52.282;10.560;2024-03-02T08:16:42;9.40;99.90
26947;DHT22;14501;52.282;10.560;2024-03-02T08:19:08;9.70;99.90
26947;DHT22;14501;52.282;10.560;2024-03-02T08:21:34;9.80;99.90
26947;DHT22;14501;52.282;10.560;2024-03-02T08:24:02;10.00;99.90
26947;DHT22;14501;52.282;10.560;2024-03-02T08:26:28;10.10;99.90
26947;DHT22;14501;52.282;10.560;2024-03-02T08:28:57;10.20;99.90
26947;DHT22;14501;52.282;10.560;2024-03-02T08:31:23;10.40;99.90
26947;DHT22;14501;52.282;10.560;2024-03-02T08:33:49;10.60;99.90
26947;DHT22;14501;52.282;10.560;2024-03-02T08:36:14;10.70;99.90
26947;DHT22;14501;52.282;10.560;2024-03-02T08:38:41;10.90;99.90
26947;DHT22;14501;52.282;10.560;2024-03-02T08:41:07;11.00;99.90
26947;DHT22;14501;52.282;10.560;2024-03-02T08:43:33;11.00;99.90
26947;DHT22;14501;52.282;10.560;2024-03-02T08:45:59;11.20;99.90
26947;DHT22;14501;52.282;10.560;2024-03-02T08:48:24;11.50;99.90
26947;DHT22;14501;52.282;10.560;2024-03-02T08:50:50;12.10;99.90
26947;DHT22;14501;52.282;10.560;2024-03-02T08:53:15;12.80;99.90
26947;DHT22;14501;52.282;10.560;2024-03-02T08:55:45;14.20;99.90
26947;DHT22;14501;52.282;10.560;2024-03-02T08:58:11;15.80;99.90
26947;DHT22;14501;52.282;10.560;2024-03-02T09:00:36;16.80;99.90
26947;DHT22;14501;52.282;10.560;2024-03-02T09:03:02;16.90;99.90
26947;DHT22;14501;52.282;10.560;2024-03-02T09:05:28;17.10;99.90
26947;DHT22;14501;52.282;10.560;2024-03-02T09:07:54;17.60;99.90
26947;DHT22;14501;52.282;10.560;2024-03-02T09:10:19;17.50;99.90
26947;DHT22;14501;52.282;10.560;2024-03-02T09:12:45;17.40;99.90
26947;DHT22;14501;52.282;10.560;2024-03-02T09:15:10;17.30;99.90
26947;DHT22;14501;52.282;10.560;2024-03-02T09:17:36;17.20;99.90
26947;DHT22;14501;52.282;10.560;2024-03-02T09:20:02;16.70;99.90
26947;DHT22;14501;52.282;10.560;2024-03-02T09:22:29;16.60;99.90
26947;DHT22;14501;52.282;10.560;2024-03-02T09:24:55;16.40;99.90
26947;DHT22;14501;52.282;10.560;2024-03-02T09:27:21;16.40;99.90
26947;DHT22;14501;52.282;10.560;2024-03-02T09:29:47;16.30;99.90
26947;DHT22;14501;52.282;10.560;2024-03-02T09:32:13;16.40;99.90
26947;DHT22;14501;52.282;10.560;2024-03-02T09:34:39;16.80;99.90
26947;DHT22;14501;52.282;10.560;2024-03-02T09:37:06;16.80;99.90
26947;DHT22;14501;52.282;10.560;2024-03-02T09:42:00;17.40;99.90
26947;DHT22;14501;52.282;10.560;2024-03-02T09:46:52;18.00;99.90
26947;DHT22;14501;52.282;10.560;2024-03-02T09:49:18;18.60;99.90
26947;DHT22;14501;52.282;10.560;2024-03-02T09:51:48;19.00;99.90
26947;DHT22;14501;52.282;10.560;2024-03-02T09:54:15;18.90;99.90
26947;DHT22;14501;52.282;10.560;2024-03-02T09:59:07;19.20;99.90
26947;DHT22;14501;52.282;10.560;2024-03-02T10:01:33;19.60;99.90
26947;DHT22;14501;52.282;10.560;2024-03-02T10:04:02;19.90;99.90
26947;DHT22;14501;52.282;10.560;2024-03-02T10:06:28;19.70;99.90
26947;DHT22;14501;52.282;10.560;2024-03-02T10:08:55;20.10;99.90
26947;DHT22;14501;52.282;10.560;2024-03-02T10:11:31;20.30;99.90
26947;DHT22;14501;52.282;10.560;2024-03-02T10:14:10;19.80;99.90
26947;DHT22;14501;52.282;10.560;2024-03-02T10:16:40;19.60;99.90
26947;DHT22;14501;52.282;10.560;2024-03-02T10:19:22;18.90;99.90
26947;DHT22;14501;52.282;10.560;2024-03-02T10:21:52;18.60;99.90
26947;DHT22;14501;52.282;10.560;2024-03-02T10:24:18;18.30;99.90
26947;DHT22;14501;52.282;10.560;2024-03-02T10:26:45;17.70;99.90
26947;DHT22;14501;52.282;10.560;2024-03-02T10:29:11;17.70;99.90
26947;DHT22;14501;52.282;10.560;2024-03-02T10:31:42;17.60;99.90
26947;DHT22;14501;52.282;10.560;2024-03-02T10:34:10;17.30;99.90
26947;DHT22;14501;52.282;10.560;2024-03-02T10:36:36;17.20;99.90
26947;DHT22;14501;52.282;10.560;2024-03-02T10:39:06;16.90;99.90
26947;DHT22;14501;52.282;10.560;2024-03-02T10:41:34;16.80;99.90
26947;DHT22;14501;52.282;10.560;2024-03-02T10:44:03;17.00;99.90
26947;DHT22;14501;52.282;10.560;2024-03-02T10:46:31;17.20;99.90
26947;DHT22;14501;52.282;10.560;2024-03-02T10:48:57;17.90;99.90
26947;DHT22;14501;52.282;10.560;2024-03-02T10:51:28;18.00;99.90
26947;DHT22;14501;52.282;10.560;2024-03-02T10:53:57;18.20;99.90
26947;DHT22;14501;52.282;10.560;2024-03-02T10:56:34;17.80;99.90
26947;DHT22;14501;52.282;10.560;2024-03-02T11:02:03;17.40;99.90
26947;DHT22;14501;52.282;10.560;2024-03-02T11:04:30;17.30;99.90
26947;DHT22;14501;52.282;10.560;2024-03-02T11:07:05;16.90;99.90
26947;DHT22;14501;52.282;10.560;2024-03-02T11:09:34;16.20;99.90
26947;DHT22;14501;52.282;10.560;2024-03-02T11:12:09;16.00;99.90
26947;DHT22;14501;52.282;10.560;2024-03-02T11:14:40;16.10;99.90
26947;DHT22;14501;52.282;10.560;2024-03-02T11:17:09;16.00;99.90
26947;DHT22;14501;52.282;10.560;2024-03-02T11:19:37;16.10;99.90
26947;DHT22;14501;52.282;10.560;2024-03-02T11:22:04;15.90;99.90
26947;DHT22;14501;52.282;10.560;2024-03-02T11:24:31;15.80;99.90
26947;DHT22;14501;52.282;10.560;2024-03-02T11:27:02;15.60;99.90
26947;DHT22;14501;52.282;10.560;2024-03-02T11:32:16;15.40;99.90
26947;DHT22;14501;52.282;10.560;2024-03-02T11:34:43;15.50;99.90
26947;DHT22;14501;52.282;10.560;2024-03-02T11:37:10;15.60;99.90
26947;DHT22;14501;52.282;10.560;2024-03-02T11:39:38;15.60;99.90
26947;DHT22;14501;52.282;10.560;2024-03-02T11:42:06;15.70;99.90
26947;DHT22;14501;52.282;10.560;2024-03-02T11:44:33;15.70;99.90
26947;DHT22;14501;52.282;10.560;2024-03-02T11:47:00;15.50;99.90
26947;DHT22;14501;52.282;10.560;2024-03-02T11:49:42;15.40;99.90
26947;DHT22;14501;52.282;10.560;2024-03-02T11:52:13;15.40;99.90
26947;DHT22;14501;52.282;10.560;2024-03-02T11:54:40;15.30;99.90
26947;DHT22;14501;52.282;10.560;2024-03-02T11:57:07;15.30;99.90
26947;DHT22;14501;52.282;10.560;2024-03-02T11:59:34;15.50;99.90
26947;DHT22;14501;52.282;10.560;2024-03-02T12:02:00;15.30;99.90
26947;DHT22;14501;52.282;10.560;2024-03-02T12:04:26;15.20;99.90
26947;DHT22;14501;52.282;10.560;2024-03-02T12:07:00;15.10;99.90
26947;DHT22;14501;52.282;10.560;2024-03-02T12:09:28;15.10;99.90
26947;DHT22;14501;52.282;10.560;2024-03-02T12:12:08;15.10;99.90
26947;DHT22;14501;52.282;10.560;2024-03-02T12:14:36;15.30;99.90
26947;DHT22;14501;52.282;10.560;2024-03-02T12:17:03;15.20;99.90
26947;DHT22;14501;52.282;10.560;2024-03-02T12:19:29;15.20;99.90
26947;DHT22;14501;52.282;10.560;2024-03-02T12:21:59;15.20;99.90
26947;DHT22;14501;52.282;10.560;2024-03-02T12:24:27;15.30;99.90
26947;DHT22;14501;52.282;10.560;2024-03-02T12:29:20;15.50;99.90
26947;DHT22;14501;52.282;10.560;2024-03-02T12:31:52;15.50;99.90
26947;DHT22;14501;52.282;10.560;2024-03-02T12:34:18;15.60;99.90
26947;DHT22;14501;52.282;10.560;2024-03-02T12:36:46;15.70;99.90
26947;DHT22;14501;52.282;10.560;2024-03-02T12:39:15;15.90;99.90
26947;DHT22;14501;52.282;10.560;2024-03-02T12:41:41;16.00;99.90
26947;DHT22;14501;52.282;10.560;2024-03-02T12:44:07;16.20;99.90
26947;DHT22;14501;52.282;10.560;2024-03-02T12:46:33;16.50;99.90
26947;DHT22;14501;52.282;10.560;2024-03-02T12:49:04;16.70;99.90
26947;DHT22;14501;52.282;10.560;2024-03-02T12:51:30;17.00;99.90
26947;DHT22;14501;52.282;10.560;2024-03-02T12:53:57;17.00;99.90
26947;DHT22;14501;52.282;10.560;2024-03-02T12:56:24;17.30;99.90
26947;DHT22;14501;52.282;10.560;2024-03-02T12:58:54;17.50;99.90
26947;DHT22;14501;52.282;10.560;2024-03-02T13:01:19;17.90;99.90
26947;DHT22;14501;52.282;10.560;2024-03-02T13:03:45;17.90;99.90
26947;DHT22;14501;52.282;10.560;2024-03-02T13:06:13;17.80;99.90
26947;DHT22;14501;52.282;10.560;2024-03-02T13:08:39;17.60;99.90
26947;DHT22;14501;52.282;10.560;2024-03-02T13:11:04;17.60;99.90
26947;DHT22;14501;52.282;10.560;2024-03-02T13:13:32;17.40;99.90
26947;DHT22;14501;52.282;10.560;2024-03-02T13:15:58;17.30;99.90
26947;DHT22;14501;52.282;10.560;2024-03-02T13:18:24;17.40;99.90
26947;DHT22;14501;52.282;10.560;2024-03-02T13:20:50;17.30;99.90
26947;DHT22;14501;52.282;10.560;2024-03-02T13:23:15;17.10;99.90
26947;DHT22;14501;52.282;10.560;2024-03-02T13:25:41;16.90;99.90
26947;DHT22;14501;52.282;10.560;2024-03-02T13:28:08;16.50;99.90
26947;DHT22;14501;52.282;10.560;2024-03-02T13:30:34;16.20;99.90
26947;DHT22;14501;52.282;10.560;2024-03-02T13:33:00;16.10;99.90
26947;DHT22;14501;52.282;10.560;2024-03-02T13:35:26;16.00;99.90
26947;DHT22;14501;52.282;10.560;2024-03-02T13:37:51;15.90;99.90
26947;DHT22;14501;52.282;10.560;2024-03-02T13:40:17;15.70;99.90
26947;DHT22;14501;52.282;10.560;2024-03-02T13:42:46;15.60;99.90
26947;DHT22;14501;52.282;10.560;2024-03-02T13:45:15;15.60;99.90
26947;DHT22;14501;52.282;10.560;2024-03-02T13:47:41;15.70;99.90
26947;DHT22;14501;52.282;10.560;2024-03-02T13:50:10;15.70;99.90
26947;DHT22;14501;52.282;10.560;2024-03-02T13:52:36;15.70;99.90
26947;DHT22;14501;52.282;10.560;2024-03-02T13:55:02;15.70;99.90
26947;DHT22;14501;52.282;10.560;2024-03-02T13:57:28;15.60;99.90
26947;DHT22;14501;52.282;10.560;2024-03-02T13:59:54;15.60;99.90
26947;DHT22;14501;52.282;10.560;2024-03-02T14:02:20;15.60;99.90
26947;DHT22;14501;52.282;10.560;2024-03-02T14:04:48;15.50;99.90
26947;DHT22;14501;52.282;10.560;2024-03-02T14:07:15;15.50;99.90
26947;DHT22;14501;52.282;10.560;2024-03-02T14:09:40;15.80;99.90
26947;DHT22;14501;52.282;10.560;2024-03-02T14:12:06;15.80;99.90
26947;DHT22;14501;52.282;10.560;2024-03-02T14:14:32;15.80;99.90
26947;DHT22;14501;52.282;10.560;2024-03-02T14:19:28;16.10;99.90
26947;DHT22;14501;52.282;10.560;2024-03-02T14:21:54;16.10;99.90
26947;DHT22;14501;52.282;10.560;2024-03-02T14:24:19;16.10;99.90
26947;DHT22;14501;52.282;10.560;2024-03-02T14:26:49;16.20;99.90
26947;DHT22;14501;52.282;10.560;2024-03-02T14:29:14;16.20;99.90
26947;DHT22;14501;52.282;10.560;2024-03-02T14:31:40;16.10;99.90
26947;DHT22;14501;52.282;10.560;2024-03-02T14:34:06;16.00;99.90
26947;DHT22;14501;52.282;10.560;2024-03-02T14:36:31;15.90;99.90
26947;DHT22;14501;52.282;10.560;2024-03-02T14:38:57;15.80;99.90
26947;DHT22;14501;52.282;10.560;2024-03-02T14:41:23;15.80;99.90
26947;DHT22;14501;52.282;10.560;2024-03-02T14:43:50;15.80;99.90
26947;DHT22;14501;52.282;10.560;2024-03-02T14:46:15;15.60;99.90
26947;DHT22;14501;52.282;10.560;2024-03-02T14:48:43;15.60;99.90
26947;DHT22;14501;52.282;10.560;2024-03-02T14:51:09;15.50;99.90
26947;DHT22;14501;52.282;10.560;2024-03-02T14:53:36;15.50;99.90
26947;DHT22;14501;52.282;10.560;2024-03-02T14:56:03;15.50;99.90
26947;DHT22;14501;52.282;10.560;2024-03-02T14:58:29;15.40;99.90
26947;DHT22;14501;52.282;10.560;2024-03-02T15:00:55;15.20;99.90
26947;DHT22;14501;52.282;10.560;2024-03-02T15:03:20;15.10;99.90
26947;DHT22;14501;52.282;10.560;2024-03-02T15:05:46;15.10;99.90
26947;DHT22;14501;52.282;10.560;2024-03-02T15:08:12;15.00;99.90
26947;DHT22;14501;52.282;10.560;2024-03-02T15:10:38;14.80;99.90
26947;DHT22;14501;52.282;10.560;2024-03-02T15:13:03;14.80;99.90
26947;DHT22;14501;52.282;10.560;2024-03-02T15:15:29;14.70;99.90
26947;DHT22;14501;52.282;10.560;2024-03-02T15:17:54;14.60;99.90
26947;DHT22;14501;52.282;10.560;2024-03-02T15:20:20;14.30;99.90
26947;DHT22;14501;52.282;10.560;2024-03-02T15:22:47;14.40;99.90
26947;DHT22;14501;52.282;10.560;2024-03-02T15:25:12;14.40;99.90
26947;DHT22;14501;52.282;10.560;2024-03-02T15:27:38;14.20;99.90
26947;DHT22;14501;52.282;10.560;2024-03-02T15:30:05;14.20;99.90
26947;DHT22;14501;52.282;10.560;2024-03-02T15:32:32;14.20;99.90
26947;DHT22;14501;52.282;10.560;2024-03-02T15:34:59;14.20;99.90
26947;DHT22;14501;52.282;10.560;2024-03-02T15:37:25;14.20;99.90
26947;DHT22;14501;52.282;10.560;2024-03-02T15:39:51;14.10;99.90
26947;DHT22;14501;52.282;10.560;2024-03-02T15:42:16;14.00;99.90
26947;DHT22;14501;52.282;10.560;2024-03-02T15:44:43;14.00;99.90
26947;DHT22;14501;52.282;10.560;2024-03-02T15:47:09;13.90;99.90
26947;DHT22;14501;52.282;10.560;2024-03-02T15:49:34;13.60;99.90
26947;DHT22;14501;52.282;10.560;2024-03-02T15:52:00;13.70;99.90
26947;DHT22;14501;52.282;10.560;2024-03-02T15:54:26;13.60;99.90
26947;DHT22;14501;52.282;10.560;2024-03-02T15:56:53;13.50;99.90
26947;DHT22;14501;52.282;10.560;2024-03-02T15:59:18;13.50;99.90
26947;DHT22;14501;52.282;10.560;2024-03-02T16:01:53;13.40;99.90
26947;DHT22;14501;52.282;10.560;2024-03-02T16:04:19;13.30;99.90
26947;DHT22;14501;52.282;10.560;2024-03-02T16:06:44;13.20;99.90